Time;durP1;ratioP1;P1;durP2;ratioP2;P2;SDS_P1;SDS_P2;PMS_P1;PMS_P2;Temp;Humidity;BMP_temperature;BMP_pressure;BME280_temperature;BME280_humidity;BME280_pressure;Samples;Min_cycle;Max_cycle;Signal;HPM_P1;HPM_P2
2023/12/04 00:01:26;;;;;;;44.60;17.60;;;;;;;-2.08;100.00;101391.72;7366236;19;20202;-43
2023/12/04 00:03:55;;;;;;;37.60;14.93;;;;;;;-2.00;100.00;101384.88;7387201;19;20269;-43
2023/12/04 00:06:26;;;;;;;45.08;15.57;;;;;;;-2.15;100.00;101381.72;7364548;19;20135;-43
2023/12/04 00:08:55;;;;;;;37.78;14.65;;;;;;;-2.22;100.00;101381.78;7386416;19;20152;-44
2023/12/04 00:11:25;;;;;;;38.60;14.20;;;;;;;-2.17;100.00;101376.50;7364063;19;20149;-41
2023/12/04 00:13:57;;;;;;;41.30;15.40;;;;;;;-2.33;100.00;101368.97;7386212;19;20654;-42
2023/12/04 00:16:27;;;;;;;40.53;15.30;;;;;;;-2.33;100.00;101379.06;7364447;19;20579;-44
2023/12/04 00:18:57;;;;;;;38.05;14.93;;;;;;;-2.29;100.00;101379.38;7385552;19;20155;-44
2023/12/04 00:21:26;;;;;;;36.67;13.73;;;;;;;-2.54;100.00;101376.81;7364482;19;20618;-45
2023/12/04 00:23:56;;;;;;;48.13;16.30;;;;;;;-2.69;100.00;101366.00;7386583;19;20170;-43
2023/12/04 00:26:26;;;;;;;35.75;14.13;;;;;;;-2.78;100.00;101371.00;7364100;19;20135;-43
2023/12/04 00:28:58;;;;;;;37.65;14.45;;;;;;;-2.77;100.00;101371.16;7386182;19;20150;-43
2023/12/04 00:31:27;;;;;;;30.50;13.00;;;;;;;-2.83;100.00;101359.53;7364532;19;20222;-42
2023/12/04 00:33:57;;;;;;;34.45;14.00;;;;;;;-2.69;100.00;101361.84;7386801;19;20167;-43
2023/12/04 00:36:27;;;;;;;97.15;32.10;;;;;;;-2.79;100.00;101369.19;7365747;19;20142;-43
2023/12/04 00:38:57;;;;;;;44.55;17.10;;;;;;;-2.74;100.00;101363.00;7386132;19;20146;-43
2023/12/04 00:41:26;;;;;;;39.30;14.95;;;;;;;-2.70;100.00;101365.13;7363628;19;20619;-43
2023/12/04 00:43:59;;;;;;;49.15;16.70;;;;;;;-2.62;100.00;101356.72;7386141;19;20185;-43
2023/12/04 00:46:28;;;;;;;42.75;15.95;;;;;;;-2.56;100.00;101353.03;7361959;19;20142;-44
2023/12/04 00:48:58;;;;;;;31.33;13.82;;;;;;;-2.63;100.00;101362.50;7385591;19;20142;-43
2023/12/04 00:51:28;;;;;;;42.75;15.70;;;;;;;-2.61;100.00;101353.44;7363242;19;20154;-42
2023/12/04 00:53:58;;;;;;;41.78;14.98;;;;;;;-2.68;100.00;101352.66;7385722;19;20246;-43
2023/12/04 00:56:27;;;;;;;35.22;15.00;;;;;;;-2.63;100.00;101359.97;7364001;19;20155;-43
2023/12/04 00:59:00;;;;;;;46.03;16.23;;;;;;;-2.56;100.00;101350.50;7387084;19;20154;-43
2023/12/04 01:01:29;;;;;;;37.05;14.68;;;;;;;-2.79;100.00;101354.03;7361020;19;20139;-43
2023/12/04 01:03:59;;;;;;;33.97;13.73;;;;;;;-2.96;100.00;101355.72;7385323;19;20213;-43
2023/12/04 01:06:29;;;;;;;37.42;13.15;;;;;;;-3.03;100.00;101350.75;7364595;19;20166;-43
2023/12/04 01:08:59;;;;;;;51.47;16.02;;;;;;;-3.13;100.00;101341.31;7386019;19;20521;-43
2023/12/04 01:11:28;;;;;;;41.97;13.23;;;;;;;-3.03;100.00;101349.09;7362433;19;20250;-43
2023/12/04 01:14:01;;;;;;;69.03;23.35;;;;;;;-2.87;100.00;101341.50;7386167;19;20481;-43
2023/12/04 01:16:30;;;;;;;42.67;15.48;;;;;;;-2.95;100.00;101339.81;7365463;19;20141;-42
2023/12/04 01:19:01;;;;;;;40.17;12.80;;;;;;;-2.98;100.00;101342.00;7386130;19;20156;-43
2023/12/04 01:21:31;;;;;;;43.53;16.58;;;;;;;-2.98;100.00;101334.44;7362484;19;20139;-44
2023/12/04 01:24:01;;;;;;;35.08;13.45;;;;;;;-2.95;100.00;101331.31;7384811;19;20170;-43
2023/12/04 01:26:30;;;;;;;38.72;13.55;;;;;;;-3.00;100.00;101323.28;7363164;19;20554;-43
2023/12/04 01:29:02;;;;;;;51.17;17.40;;;;;;;-3.06;100.00;101327.69;7383426;19;20150;-45
2023/12/04 01:31:32;;;;;;;37.15;13.35;;;;;;;-3.20;100.00;101324.59;7362692;19;20150;-42
2023/12/04 01:34:02;;;;;;;33.55;12.05;;;;;;;-3.17;100.00;101324.03;7384138;19;20174;-42
2023/12/04 01:36:31;;;;;;;31.25;12.98;;;;;;;-3.29;100.00;101327.03;7362704;19;20139;-46
2023/12/04 01:39:03;;;;;;;32.33;11.32;;;;;;;-3.24;100.00;101332.56;7384277;19;20162;-42
2023/12/04 01:41:33;;;;;;;52.00;17.88;;;;;;;-3.33;100.00;101331.59;7361267;19;20218;-42
2023/12/04 01:44:05;;;;;;;43.47;15.82;;;;;;;-3.19;100.00;101318.81;7383737;19;20545;-42
2023/12/04 01:46:35;;;;;;;32.88;12.98;;;;;;;-3.33;100.00;101324.91;7362084;19;20162;-42
2023/12/04 01:49:05;;;;;;;35.60;12.55;;;;;;;-3.13;100.00;101314.41;7383865;19;20139;-41
2023/12/04 01:51:35;;;;;;;35.35;12.20;;;;;;;-3.09;100.00;101304.66;7362558;19;20401;-41
2023/12/04 01:54:07;;;;;;;47.72;16.50;;;;;;;-2.99;100.00;101310.81;7378417;19;20139;-41
2023/12/04 01:56:37;;;;;;;38.30;13.68;;;;;;;-2.99;100.00;101312.44;7363420;19;20564;-41
2023/12/04 01:59:09;;;;;;;28.38;13.00;;;;;;;-3.09;100.00;101307.16;7383172;19;20214;-43
2023/12/04 02:01:40;;;;;;;31.30;11.85;;;;;;;-3.08;100.00;101303.91;7362219;19;20261;-42
2023/12/04 02:04:10;;;;;;;36.63;13.40;;;;;;;-2.99;100.00;101299.81;7383444;19;20508;-42
2023/12/04 02:06:39;;;;;;;29.48;11.48;;;;;;;-2.93;100.00;101300.44;7362103;19;20223;-42
2023/12/04 02:09:12;;;;;;;32.22;11.70;;;;;;;-2.91;100.00;101286.38;7383067;19;20138;-44
2023/12/04 02:11:41;;;;;;;29.90;12.48;;;;;;;-3.00;100.00;101293.88;7360695;19;20555;-43
2023/12/04 02:14:14;;;;;;;32.85;11.30;;;;;;;-3.08;100.00;101293.81;7385033;19;20153;-43
2023/12/04 02:16:45;;;;;;;30.60;12.20;;;;;;;-2.93;100.00;101297.91;7363807;19;20209;-42
2023/12/04 02:19:14;;;;;;;38.72;13.23;;;;;;;-2.94;100.00;101286.03;7382645;19;20138;-43
2023/12/04 02:21:44;;;;;;;37.35;12.38;;;;;;;-2.79;100.00;101293.41;7361178;19;20600;-42
2023/12/04 02:24:16;;;;;;;37.65;12.68;;;;;;;-2.68;100.00;101285.31;7384911;19;20456;-43
2023/12/04 02:26:50;;;;;;;37.47;14.13;;;;;;;-2.72;100.00;101288.28;7361547;19;20190;-43
2023/12/04 02:29:24;;;;;;;29.20;11.50;;;;;;;-2.79;100.00;101288.34;7382871;19;20151;-42
2023/12/04 02:31:54;;;;;;;38.25;13.73;;;;;;;-3.03;100.00;101290.13;7361716;19;20193;-43
2023/12/04 02:34:24;;;;;;;33.95;12.70;;;;;;;-3.01;100.00;101279.47;7382980;19;20138;-42
2023/12/04 02:36:55;;;;;;;29.48;12.40;;;;;;;-3.14;100.00;101282.31;7361667;19;20210;-42
2023/12/04 02:39:27;;;;;;;32.83;12.90;;;;;;;-3.24;100.00;101281.19;7377069;19;20184;-43
2023/12/04 02:41:57;;;;;;;28.63;10.85;;;;;;;-3.14;100.00;101279.78;7369040;19;20206;-43
2023/12/04 02:44:26;;;;;;;37.08;14.10;;;;;;;-3.03;100.00;101275.00;7388870;19;20143;-45
2023/12/04 02:46:56;;;;;;;33.33;12.07;;;;;;;-3.12;100.00;101288.41;7368703;19;20200;-43
2023/12/04 02:49:25;;;;;;;31.17;11.98;;;;;;;-3.09;100.00;101276.88;7388233;19;20218;-42
2023/12/04 02:51:57;;;;;;;28.75;11.88;;;;;;;-3.20;100.00;101279.16;7369745;19;20197;-43
2023/12/04 02:54:29;;;;;;;35.45;13.25;;;;;;;-3.30;100.00;101266.28;7388551;19;20149;-43
2023/12/04 02:56:59;;;;;;;32.90;13.98;;;;;;;-3.25;100.00;101267.66;7368044;19;20257;-42
2023/12/04 02:59:28;;;;;;;35.33;13.63;;;;;;;-3.33;100.00;101271.03;7390118;19;20165;-43
2023/12/04 03:01:58;;;;;;;31.30;12.90;;;;;;;-3.31;100.00;101264.50;7369049;19;20194;-43
2023/12/04 03:04:29;;;;;;;37.08;12.68;;;;;;;-3.30;100.00;101257.09;7390902;19;20535;-43
2023/12/04 03:06:59;;;;;;;34.35;11.75;;;;;;;-3.36;100.00;101247.97;7367658;19;20205;-43
2023/12/04 03:09:32;;;;;;;27.65;11.70;;;;;;;-3.36;100.00;101240.41;7388687;19;20160;-42
2023/12/04 03:12:17;;;;;;;65.28;22.40;;;;;;;-3.41;100.00;101239.91;7367238;19;20612;-42
2023/12/04 03:14:47;;;;;;;25.40;11.77;;;;;;;-3.50;100.00;101236.44;7388581;19;20146;-43
2023/12/04 03:17:17;;;;;;;28.55;11.95;;;;;;;-3.49;100.00;101228.13;7367089;19;20253;-44
2023/12/04 03:19:46;;;;;;;30.92;12.75;;;;;;;-3.43;100.00;101223.72;7388613;19;20138;-43
2023/12/04 03:22:16;;;;;;;29.92;12.38;;;;;;;-3.43;100.00;101224.59;7365978;19;20202;-43
2023/12/04 03:24:48;;;;;;;33.70;12.88;;;;;;;-3.41;100.00;101227.31;7389046;19;20135;-42
2023/12/04 03:27:18;;;;;;;33.75;13.02;;;;;;;-3.44;100.00;101217.78;7366273;19;20593;-43
2023/12/04 03:29:47;;;;;;;28.92;11.90;;;;;;;-3.45;100.00;101216.00;7388528;19;20146;-42
2023/12/04 03:32:17;;;;;;;43.53;14.80;;;;;;;-3.39;100.00;101214.13;7367574;19;20209;-43
2023/12/04 03:34:46;;;;;;;31.95;12.52;;;;;;;-3.31;100.00;101211.50;7390329;19;20182;-42
2023/12/04 03:37:16;;;;;;;33.33;12.02;;;;;;;-3.43;100.00;101203.53;7366591;19;20190;-43
2023/12/04 03:39:48;;;;;;;37.72;13.20;;;;;;;-3.36;100.00;101211.03;7384383;19;20143;-42
2023/12/04 03:42:18;;;;;;;26.83;11.25;;;;;;;-3.41;100.00;101202.97;7365011;19;20243;-43
2023/12/04 03:44:47;;;;;;;33.35;12.52;;;;;;;-3.24;100.00;101196.25;7390193;19;20149;-43
2023/12/04 03:47:17;;;;;;;29.98;11.63;;;;;;;-3.29;100.00;101192.34;7364911;19;20194;-44
2023/12/04 03:49:46;;;;;;;40.33;14.25;;;;;;;-3.39;100.00;101186.34;7389879;19;20214;-42
2023/12/04 03:52:16;;;;;;;33.33;11.32;;;;;;;-3.49;100.00;101177.66;7364249;19;20206;-43
2023/12/04 03:54:48;;;;;;;37.97;13.35;;;;;;;-3.49;100.00;101170.97;7387787;19;20158;-43
2023/12/04 03:57:18;;;;;;;39.88;15.27;;;;;;;-3.50;100.00;101170.84;7365016;19;20217;-42
2023/12/04 03:59:47;;;;;;;32.30;11.65;;;;;;;-3.45;100.00;101165.53;7386374;19;20640;-43
2023/12/04 04:02:17;;;;;;;27.02;11.02;;;;;;;-3.46;100.00;101158.69;7363280;19;20217;-43
2023/12/04 04:04:46;;;;;;;36.72;12.95;;;;;;;-3.36;100.00;101149.53;7386882;19;20179;-43
2023/12/04 04:07:18;;;;;;;30.48;11.30;;;;;;;-3.42;100.00;101155.78;7365790;19;20257;-43
2023/12/04 04:09:51;;;;;;;31.25;12.35;;;;;;;-3.45;100.00;101155.44;7389454;19;20153;-42
2023/12/04 04:12:20;;;;;;;29.38;11.32;;;;;;;-3.52;100.00;101155.53;7365283;19;20198;-42
2023/12/04 04:14:50;;;;;;;24.10;9.07;;;;;;;-3.53;100.00;101151.22;7387813;19;20482;-42
2023/12/04 04:17:19;;;;;;;24.70;10.95;;;;;;;-3.57;100.00;101141.53;7365931;19;20282;-42
2023/12/04 04:19:49;;;;;;;35.75;15.07;;;;;;;-3.47;100.00;101140.88;7388558;19;20153;-42
2023/12/04 04:22:19;;;;;;;27.52;10.43;;;;;;;-3.60;100.00;101139.59;7364222;19;20564;-43
2023/12/04 04:24:51;;;;;;;29.60;10.38;;;;;;;-3.50;100.00;101138.03;7387242;19;20509;-43
2023/12/04 04:27:23;;;;;;;26.48;10.65;;;;;;;-3.44;100.00;101131.97;7364327;19;20188;-43
2023/12/04 04:29:53;;;;;;;31.42;10.40;;;;;;;-3.38;100.00;101131.75;7385886;19;20146;-43
2023/12/04 04:32:23;;;;;;;28.77;10.13;;;;;;;-3.40;100.00;101128.13;7364137;19;20205;-43
2023/12/04 04:34:52;;;;;;;27.60;10.05;;;;;;;-3.32;100.00;101127.31;7385994;19;20139;-44
2023/12/04 04:37:22;;;;;;;35.42;11.20;;;;;;;-3.33;100.00;101123.00;7363480;19;20214;-43
2023/12/04 04:39:54;;;;;;;24.75;10.48;;;;;;;-3.30;100.00;101124.94;7386412;19;20879;-44
2023/12/04 04:42:24;;;;;;;26.70;11.40;;;;;;;-3.22;100.00;101129.16;7362842;19;20205;-44
2023/12/04 04:44:54;;;;;;;24.38;10.35;;;;;;;-3.23;100.00;101134.06;7391458;19;20139;-42
2023/12/04 04:47:24;;;;;;;27.08;11.02;;;;;;;-3.31;100.00;101128.19;7368904;19;20198;-42
2023/12/04 04:49:53;;;;;;;31.98;11.68;;;;;;;-3.28;100.00;101133.59;7393666;19;20170;-43
2023/12/04 04:52:23;;;;;;;28.52;10.35;;;;;;;-3.33;100.00;101122.13;7370080;19;20481;-43
2023/12/04 04:54:55;;;;;;;24.92;9.07;;;;;;;-3.29;100.00;101121.66;7393231;19;20147;-43
2023/12/04 04:57:25;;;;;;;26.15;9.52;;;;;;;-3.23;100.00;101121.44;7370142;19;20198;-43
2023/12/04 04:59:54;;;;;;;25.90;10.40;;;;;;;-3.28;100.00;101115.91;7392141;19;20214;-45
2023/12/04 05:02:24;;;;;;;32.67;11.95;;;;;;;-3.24;100.00;101112.94;7368329;19;20613;-42
2023/12/04 05:04:53;;;;;;;40.40;14.15;;;;;;;-3.22;100.00;101110.59;7392044;19;20494;-44
2023/12/04 05:07:23;;;;;;;25.98;10.82;;;;;;;-3.13;100.00;101099.81;7370192;19;20528;-42
2023/12/04 05:09:55;;;;;;;29.50;10.68;;;;;;;-3.18;100.00;101102.59;7392886;19;20214;-43
2023/12/04 05:12:25;;;;;;;29.52;10.73;;;;;;;-3.13;100.00;101099.81;7368847;19;20214;-41
2023/12/04 05:14:54;;;;;;;30.38;10.27;;;;;;;-3.20;100.00;101102.44;7392458;19;20670;-42
2023/12/04 05:17:24;;;;;;;31.42;11.85;;;;;;;-3.17;100.00;101096.81;7369509;19;20186;-43
2023/12/04 05:19:54;;;;;;;21.10;9.60;;;;;;;-3.15;100.00;101096.25;7391996;19;20143;-43
2023/12/04 05:22:23;;;;;;;33.40;10.60;;;;;;;-3.12;100.00;101094.00;7369333;19;20654;-43
2023/12/04 05:24:56;;;;;;;24.25;10.55;;;;;;;-3.24;100.00;101095.28;7392090;19;20147;-43
2023/12/04 05:27:26;;;;;;;23.75;9.80;;;;;;;-3.17;100.00;101087.59;7369029;19;20204;-42
2023/12/04 05:29:56;;;;;;;24.63;10.27;;;;;;;-3.22;100.00;101088.78;7391072;19;20221;-43
2023/12/04 05:32:25;;;;;;;29.02;11.65;;;;;;;-3.09;100.00;101084.97;7368431;19;20600;-43
2023/12/04 05:34:55;;;;;;;21.65;9.75;;;;;;;-3.02;100.00;101087.38;7393278;19;20139;-43
2023/12/04 05:37:24;;;;;;;25.55;10.38;;;;;;;-3.02;100.00;101078.16;7368596;19;20215;-43
2023/12/04 05:39:57;;;;;;;29.05;10.75;;;;;;;-3.02;100.00;101077.28;7391289;19;20202;-43
2023/12/04 05:42:26;;;;;;;25.17;9.30;;;;;;;-2.94;100.00;101081.47;7368119;19;20241;-43
2023/12/04 05:44:57;;;;;;;26.77;9.40;;;;;;;-2.99;100.00;101082.63;7391531;19;20135;-43
2023/12/04 05:47:27;;;;;;;36.85;10.63;;;;;;;-2.91;100.00;101071.69;7367504;19;20194;-44
2023/12/04 05:49:56;;;;;;;40.10;14.55;;;;;;;-2.85;100.00;101072.31;7392697;19;20614;-43
2023/12/04 05:52:26;;;;;;;24.98;10.20;;;;;;;-2.82;100.00;101065.78;7367915;19;20204;-44
2023/12/04 05:54:58;;;;;;;22.00;9.57;;;;;;;-2.71;100.00;101065.22;7391544;19;20241;-43
2023/12/04 05:57:28;;;;;;;30.13;10.13;;;;;;;-2.69;100.00;101073.84;7369061;19;20579;-43
2023/12/04 05:59:58;;;;;;;27.70;11.73;;;;;;;-2.70;100.00;101067.00;7390898;19;20500;-44
2023/12/04 06:02:29;;;;;;;31.92;12.00;;;;;;;-2.67;100.00;101063.88;7368655;19;20206;-43
2023/12/04 06:04:59;;;;;;;26.60;9.75;;;;;;;-2.77;100.00;101062.94;7390951;19;20171;-42
2023/12/04 06:07:29;;;;;;;22.25;10.05;;;;;;;-2.80;100.00;101059.22;7370227;19;20281;-43
2023/12/04 06:10:01;;;;;;;30.58;11.80;;;;;;;-2.79;100.00;101048.38;7384364;19;20676;-43
2023/12/04 06:12:31;;;;;;;30.20;9.48;;;;;;;-2.79;100.00;101041.72;7367338;19;20213;-44
2023/12/04 06:15:00;;;;;;;24.10;9.30;;;;;;;-2.75;100.00;101033.72;7394328;19;20155;-45
2023/12/04 06:17:30;;;;;;;17.95;8.32;;;;;;;-2.74;100.00;101039.63;7374720;19;20202;-43
2023/12/04 06:20:00;;;;;;;22.25;9.93;;;;;;;-2.71;100.00;101035.78;7397129;19;20166;-43
2023/12/04 06:22:30;;;;;;;29.75;10.65;;;;;;;-2.80;100.00;101034.88;7374981;19;20259;-43
2023/12/04 06:25:03;;;;;;;24.45;9.52;;;;;;;-2.77;100.00;101036.81;7396903;19;20150;-44
2023/12/04 06:27:34;;;;;;;30.15;11.80;;;;;;;-2.71;100.00;101034.91;7375990;19;20197;-43
2023/12/04 06:30:04;;;;;;;25.15;9.50;;;;;;;-2.78;100.00;101033.38;7396884;19;20142;-43
2023/12/04 06:32:35;;;;;;;25.77;9.63;;;;;;;-2.82;100.00;101035.47;7374191;19;20202;-42
2023/12/04 06:35:05;;;;;;;23.77;10.02;;;;;;;-2.79;100.00;101040.81;7396965;19;20147;-42
2023/12/04 06:37:36;;;;;;;28.50;10.95;;;;;;;-2.85;100.00;101038.56;7374576;19;22680;-43
2023/12/04 06:40:11;;;;;;;23.85;9.10;;;;;;;-2.83;100.00;101024.44;7396987;19;20143;-44
2023/12/04 06:42:41;;;;;;;28.60;10.80;;;;;;;-2.95;100.00;101033.31;7371729;19;20289;-43
2023/12/04 06:45:13;;;;;;;28.38;11.02;;;;;;;-3.02;100.00;101041.94;7397035;19;20162;-43
2023/12/04 06:47:43;;;;;;;29.67;9.90;;;;;;;-3.01;100.00;101033.63;7370238;19;20220;-43
2023/12/04 06:50:13;;;;;;;29.63;10.68;;;;;;;-3.03;100.00;101030.94;7396736;19;20205;-43
2023/12/04 06:52:42;;;;;;;33.25;10.20;;;;;;;-3.05;100.00;101034.03;7371164;19;20265;-43
2023/12/04 06:55:15;;;;;;;26.85;10.82;;;;;;;-3.14;100.00;101026.41;7399403;19;20149;-42
2023/12/04 06:57:45;;;;;;;31.70;12.05;;;;;;;-3.12;100.00;101030.00;7372338;19;20249;-43
2023/12/04 07:00:16;;;;;;;29.40;11.43;;;;;;;-3.12;100.00;101023.31;7396054;19;20638;-44
2023/12/04 07:02:51;;;;;;;29.30;11.63;;;;;;;-3.09;100.00;101021.84;7371375;19;20206;-43
2023/12/04 07:05:22;;;;;;;35.65;12.40;;;;;;;-3.15;100.00;101020.50;7397139;19;20540;-43
2023/12/04 07:07:52;;;;;;;33.17;12.50;;;;;;;-3.16;100.00;101013.66;7371184;19;20194;-44
2023/12/04 07:10:24;;;;;;;27.23;10.85;;;;;;;-3.24;100.00;101019.56;7396622;19;20158;-43
2023/12/04 07:12:54;;;;;;;35.40;13.07;;;;;;;-3.17;100.00;101011.84;7371190;19;20198;-43
2023/12/04 07:15:23;;;;;;;29.00;10.30;;;;;;;-3.17;100.00;101014.38;7396487;19;20147;-43
2023/12/04 07:17:53;;;;;;;29.52;11.48;;;;;;;-3.17;100.00;101011.84;7372045;19;20235;-43
2023/12/04 07:20:25;;;;;;;35.60;12.95;;;;;;;-3.18;100.00;101010.06;7391632;19;20143;-43
2023/12/04 07:22:55;;;;;;;35.45;12.23;;;;;;;-3.19;100.00;101008.28;7365125;19;20198;-44
2023/12/04 07:25:27;;;;;;;26.55;10.43;;;;;;;-3.25;100.00;101012.72;7390019;19;20151;-45
2023/12/04 07:27:57;;;;;;;29.95;10.85;;;;;;;-3.21;100.00;100999.69;7365197;19;20186;-43
2023/12/04 07:30:27;;;;;;;36.75;12.95;;;;;;;-3.17;100.00;100991.66;7387125;19;20143;-43
2023/12/04 07:32:58;;;;;;;29.20;11.18;;;;;;;-3.25;100.00;100992.53;7363088;19;20734;-45
2023/12/04 07:35:28;;;;;;;30.08;12.18;;;;;;;-3.18;100.00;100989.88;7390605;19;20432;-42
2023/12/04 07:37:58;;;;;;;35.17;12.43;;;;;;;-3.06;100.00;100984.28;7367546;19;20794;-43
2023/12/04 07:40:30;;;;;;;34.08;13.25;;;;;;;-3.06;100.00;100984.28;7387762;19;20142;-44
2023/12/04 07:43:00;;;;;;;29.88;13.10;;;;;;;-3.06;100.00;100981.75;7365149;19;20266;-43
2023/12/04 07:45:29;;;;;;;37.22;13.95;;;;;;;-3.08;100.00;100980.72;7388141;19;20147;-44
2023/12/04 07:47:59;;;;;;;33.05;11.13;;;;;;;-3.13;100.00;100978.63;7363993;19;20190;-43
2023/12/04 07:50:29;;;;;;;30.75;11.73;;;;;;;-3.09;100.00;100978.94;7387037;19;20139;-42
2023/12/04 07:52:58;;;;;;;31.50;12.00;;;;;;;-3.15;100.00;100980.09;7365339;19;20198;-43
2023/12/04 07:55:31;;;;;;;29.98;11.75;;;;;;;-3.17;100.00;100981.56;7387855;19;20151;-43
2023/12/04 07:57:58;;;;;;;31.23;12.40;;;;;;;-3.16;100.00;100975.81;7365657;19;20887;-42
2023/12/04 08:00:28;;;;;;;36.80;13.75;;;;;;;-3.15;100.00;100966.56;7387527;19;20259;-44
2023/12/04 08:02:57;;;;;;;30.38;12.35;;;;;;;-3.17;100.00;100974.00;7365067;19;20641;-41
2023/12/04 08:05:27;;;;;;;34.28;12.52;;;;;;;-3.14;100.00;100971.78;7387835;19;20145;-44
2023/12/04 08:07:57;;;;;;;33.30;11.88;;;;;;;-3.07;100.00;100952.19;7365257;19;20186;-42
2023/12/04 08:10:26;;;;;;;36.80;14.50;;;;;;;-3.13;100.00;100958.41;7386192;19;20558;-43
2023/12/04 08:12:59;;;;;;;29.17;12.32;;;;;;;-3.08;100.00;100950.41;7365048;19;20205;-41
2023/12/04 08:15:29;;;;;;;29.48;11.45;;;;;;;-3.08;100.00;100948.78;7388106;19;20545;-42
2023/12/04 08:18:00;;;;;;;39.40;12.85;;;;;;;-3.10;100.00;100946.84;7364998;19;20641;-43
2023/12/04 08:20:29;;;;;;;39.25;12.75;;;;;;;-3.13;100.00;100943.28;7386316;19;21002;-42
2023/12/04 08:23:08;;;;;;;29.90;11.80;;;;;;;-2.91;100.00;100944.50;7364467;19;20209;-42
2023/12/04 08:25:38;;;;;;;29.02;11.85;;;;;;;-2.90;100.00;100933.66;7387101;19;20206;-44
2023/12/04 08:28:11;;;;;;;32.67;11.57;;;;;;;-2.97;100.00;100943.91;7364391;19;20627;-42
2023/12/04 08:30:41;;;;;;;33.85;11.27;;;;;;;-2.97;100.00;100929.66;7388863;19;20139;-42
2023/12/04 08:33:11;;;;;;;37.13;14.77;;;;;;;-3.01;100.00;100925.03;7363828;19;20558;-41
2023/12/04 08:35:40;;;;;;;32.40;12.00;;;;;;;-2.96;100.00;100933.06;7386457;19;20143;-41
2023/12/04 08:38:10;;;;;;;34.50;12.77;;;;;;;-2.97;100.00;100924.59;7362124;19;20186;-41
2023/12/04 08:40:40;;;;;;;34.50;13.07;;;;;;;-3.04;100.00;100934.81;7385390;19;20159;-41
2023/12/04 08:43:12;;;;;;;29.45;12.13;;;;;;;-3.01;100.00;100928.47;7365144;19;20194;-41
2023/12/04 08:45:41;;;;;;;33.88;12.20;;;;;;;-3.05;100.00;100930.50;7396976;19;20518;-41
2023/12/04 08:48:11;;;;;;;34.30;12.55;;;;;;;-3.03;100.00;100932.44;7364963;19;20187;-41
2023/12/04 08:50:41;;;;;;;38.03;12.95;;;;;;;-2.94;100.00;100929.03;7386465;19;20138;-42
2023/12/04 08:53:10;;;;;;;25.65;11.30;;;;;;;-2.92;100.00;100933.50;7363790;19;20201;-42
2023/12/04 08:55:40;;;;;;;32.70;12.25;;;;;;;-2.88;100.00;100928.03;7389193;19;20147;-42
2023/12/04 08:58:13;;;;;;;32.88;13.30;;;;;;;-2.79;100.00;100932.19;7362235;19;20190;-41
2023/12/04 09:00:42;;;;;;;33.25;13.70;;;;;;;-2.72;100.00;100934.59;7382065;19;20142;-42
2023/12/04 09:03:13;;;;;;;31.75;11.85;;;;;;;-2.75;100.00;100929.22;7359526;19;20194;-43
2023/12/04 09:05:55;;;;;;;38.00;12.82;;;;;;;-2.77;100.00;100928.19;7391789;19;20143;-42
2023/12/04 09:08:26;;;;;;;33.90;12.30;;;;;;;-2.71;100.00;100919.56;7368395;19;20241;-44
2023/12/04 09:11:06;;;;;;;40.35;12.20;;;;;;;-2.75;100.00;100926.69;7393198;19;20139;-43
2023/12/04 09:13:41;;;;;;;37.75;12.65;;;;;;;-2.71;100.00;100931.31;7368008;19;20353;-42
2023/12/04 09:16:12;;;;;;;36.00;12.10;;;;;;;-2.73;100.00;100923.59;7393205;19;20217;-43
2023/12/04 09:18:41;;;;;;;32.28;12.95;;;;;;;-2.62;100.00;100923.75;7370631;19;20604;-44
2023/12/04 09:21:11;;;;;;;31.85;12.13;;;;;;;-2.59;100.00;100924.94;7392428;19;20182;-44
2023/12/04 09:23:41;;;;;;;41.15;14.32;;;;;;;-2.52;100.00;100925.53;7369244;19;20202;-43
2023/12/04 09:26:11;;;;;;;27.80;11.10;;;;;;;-2.60;100.00;100917.19;7393080;19;20942;-43
2023/12/04 09:28:43;;;;;;;28.65;11.18;;;;;;;-2.54;100.00;100911.84;7369931;19;20194;-44
2023/12/04 09:31:13;;;;;;;44.90;15.00;;;;;;;-2.55;100.00;100912.59;7392649;19;20146;-44
2023/12/04 09:33:42;;;;;;;35.20;14.57;;;;;;;-2.47;100.00;100909.16;7369127;19;20204;-43
2023/12/04 09:36:12;;;;;;;29.73;12.63;;;;;;;-2.49;100.00;100910.66;7392993;19;20146;-44
2023/12/04 09:38:42;;;;;;;34.47;14.25;;;;;;;-2.47;100.00;100914.22;7370126;19;20200;-43
2023/12/04 09:41:13;;;;;;;31.80;12.45;;;;;;;-2.45;100.00;100908.56;7392177;19;20206;-43
2023/12/04 09:43:47;;;;;;;41.25;12.45;;;;;;;-2.31;100.00;100916.56;7368750;19;20194;-43
2023/12/04 09:46:17;;;;;;;31.77;13.75;;;;;;;-2.29;100.00;100909.16;7381656;19;20198;-43
2023/12/04 09:48:46;;;;;;;30.70;12.40;;;;;;;-2.27;100.00;100906.03;7392101;19;20142;-43
2023/12/04 09:51:17;;;;;;;30.77;12.18;;;;;;;-2.39;100.00;100908.28;7386348;19;20490;-43
2023/12/04 09:53:50;;;;;;;29.40;11.95;;;;;;;-2.18;100.00;100911.06;7398026;19;20532;-44
2023/12/04 09:56:19;;;;;;;37.88;13.50;;;;;;;-2.15;100.00;100898.75;7376440;19;20146;-43
2023/12/04 09:58:55;;;;;;;29.17;11.13;;;;;;;-2.20;100.00;100898.28;7396363;19;20148;-43
2023/12/04 10:01:24;;;;;;;28.75;11.30;;;;;;;-2.19;100.00;100892.47;7377894;19;20145;-43
2023/12/04 10:03:56;;;;;;;31.27;12.80;;;;;;;-2.12;100.00;100893.06;7387950;19;20529;-43
2023/12/04 10:06:29;;;;;;;28.23;11.93;;;;;;;-2.13;100.00;100887.13;7368128;19;20147;-43
2023/12/04 10:08:59;;;;;;;29.40;12.65;;;;;;;-1.99;100.00;100879.94;7387857;19;20202;-45
2023/12/04 10:11:30;;;;;;;31.40;12.65;;;;;;;-2.00;100.00;100881.56;7370223;19;20135;-43
2023/12/04 10:14:02;;;;;;;34.80;13.23;;;;;;;-1.94;100.00;100863.56;7388685;19;20166;-44
2023/12/04 10:16:35;;;;;;;29.15;11.98;;;;;;;-1.85;100.00;100854.28;7371016;19;20712;-43
2023/12/04 10:19:19;;;;;;;35.53;12.55;;;;;;;-1.83;100.00;100852.81;7389249;19;20147;-44
2023/12/04 10:21:50;;;;;;;35.75;13.90;;;;;;;-1.76;100.00;100859.31;7367338;19;20186;-43
2023/12/04 10:24:31;;;;;;;32.50;13.38;;;;;;;-1.72;100.00;100855.44;7389085;19;20669;-43
2023/12/04 10:27:01;;;;;;;30.90;12.98;;;;;;;-1.69;100.00;100853.19;7369694;19;20186;-42
2023/12/04 10:29:45;;;;;;;33.72;11.43;;;;;;;-1.68;100.00;100848.28;7387874;19;20630;-44
2023/12/04 10:32:15;;;;;;;33.13;12.48;;;;;;;-1.81;100.00;100848.78;7368058;19;20710;-43
2023/12/04 10:34:45;;;;;;;29.13;11.73;;;;;;;-1.70;100.00;100843.84;7390064;19;20146;-44
2023/12/04 10:37:15;;;;;;;29.38;12.40;;;;;;;-1.68;100.00;100839.78;7369377;19;20341;-45
2023/12/04 10:39:53;;;;;;;30.48;12.23;;;;;;;-1.67;100.00;100839.03;7389467;19;20619;-43
2023/12/04 10:42:27;;;;;;;25.98;9.35;;;;;;;-1.78;100.00;100841.44;7367352;19;20194;-43
2023/12/04 10:45:00;;;;;;;30.45;11.35;;;;;;;-1.70;100.00;100843.84;7388582;19;20135;-43
2023/12/04 10:47:32;;;;;;;49.95;17.83;;;;;;;-1.68;100.00;100844.84;7365664;19;21156;-44
2023/12/04 10:50:02;;;;;;;73.00;23.63;;;;;;;-1.58;100.00;100839.00;7387918;19;20171;-43
2023/12/04 10:52:33;;;;;;;32.28;11.55;;;;;;;-1.54;100.00;100841.94;7367598;19;20202;-43
2023/12/04 10:55:06;;;;;;;28.45;11.35;;;;;;;-1.45;100.00;100838.50;7388537;19;20143;-43
2023/12/04 10:57:39;;;;;;;31.33;12.77;;;;;;;-1.53;100.00;100845.38;7365443;19;20257;-42
2023/12/04 11:00:16;;;;;;;30.08;12.15;;;;;;;-1.52;100.00;100837.94;7385923;19;20146;-42
2023/12/04 11:02:48;;;;;;;27.20;11.85;;;;;;;-1.56;100.00;100838.38;7367025;19;20206;-44
2023/12/04 11:05:21;;;;;;;27.52;10.93;;;;;;;-1.47;100.00;100833.28;7392514;19;20135;-44
2023/12/04 11:07:54;;;;;;;29.73;12.65;;;;;;;-1.63;100.00;100836.91;7372440;19;20215;-42
2023/12/04 11:10:49;;;;;;;36.13;11.70;;;;;;;-1.62;100.00;100842.88;7396121;19;20642;-43
2023/12/04 11:13:24;;;;;;;30.00;11.90;;;;;;;-1.34;100.00;100835.28;7373757;19;20212;-43
2023/12/04 11:15:59;;;;;;;33.72;13.38;;;;;;;-1.16;100.00;100835.16;7398596;19;20161;-45
2023/12/04 11:18:30;;;;;;;29.15;12.25;;;;;;;-1.29;100.00;100829.00;7374860;19;20275;-44